sensor_id;sensor_type;location;lat;lon;timestamp;pressure;altitude;pressure_sealevel;temperature;humidity
4617;BME280;2321;42.704;23.384;2023-12-20T00:01:42;95839.22;;;0.04;100.00
4617;BME280;2321;42.704;23.384;2023-12-20T00:04:09;95839.22;;;0.04;100.00
4617;BME280;2321;42.704;23.384;2023-12-20T00:06:36;95835.78;;;0.04;100.00
4617;BME280;2321;42.704;23.384;2023-12-20T00:09:03;95833.38;;;0.01;100.00
4617;BME280;2321;42.704;23.384;2023-12-20T00:11:30;95834.34;;;-0.01;100.00
4617;BME280;2321;42.704;23.384;2023-12-20T00:13:58;95833.28;;;-0.09;100.00
4617;BME280;2321;42.704;23.384;2023-12-20T00:16:25;95833.94;;;-0.19;100.00
4617;BME280;2321;42.704;23.384;2023-12-20T00:18:52;95829.84;;;-0.35;100.00
4617;BME280;2321;42.704;23.384;2023-12-20T00:21:19;95838.16;;;-0.41;100.00
4617;BME280;2321;42.704;23.384;2023-12-20T00:23:47;95832.06;;;-0.41;100.00
4617;BME280;2321;42.704;23.384;2023-12-20T00:26:14;95823.16;;;-0.39;100.00
4617;BME280;2321;42.704;23.384;2023-12-20T00:28:41;95821.88;;;-0.33;100.00
4617;BME280;2321;42.704;23.384;2023-12-20T00:31:09;95816.84;;;-0.36;100.00
4617;BME280;2321;42.704;23.384;2023-12-20T00:33:36;95811.63;;;-0.36;100.00
4617;BME280;2321;42.704;23.384;2023-12-20T00:36:05;95802.00;;;-0.36;100.00
4617;BME280;2321;42.704;23.384;2023-12-20T00:38:32;95799.28;;;-0.34;100.00
4617;BME280;2321;42.704;23.384;2023-12-20T00:41:00;95795.69;;;-0.33;100.00
4617;BME280;2321;42.704;23.384;2023-12-20T00:43:27;95797.59;;;-0.35;100.00
4617;BME280;2321;42.704;23.384;2023-12-20T00:45:54;95803.69;;;-0.35;100.00
4617;BME280;2321;42.704;23.384;2023-12-20T00:48:23;95801.91;;;-0.34;100.00
4617;BME280;2321;42.704;23.384;2023-12-20T00:50:50;95794.84;;;-0.34;100.00
4617;BME280;2321;42.704;23.384;2023-12-20T00:53:17;95795.81;;;-0.35;100.00
4617;BME280;2321;42.704;23.384;2023-12-20T00:55:44;95784.03;;;-0.40;100.00
4617;BME280;2321;42.704;23.384;2023-12-20T00:58:11;95789.38;;;-0.42;100.00
4617;BME280;2321;42.704;23.384;2023-12-20T01:00:40;95786.88;;;-0.43;100.00
4617;BME280;2321;42.704;23.384;2023-12-20T01:03:08;95775.56;;;-0.44;100.00
4617;BME280;2321;42.704;23.384;2023-12-20T01:05:37;95783.53;;;-0.46;100.00
4617;BME280;2321;42.704;23.384;2023-12-20T01:08:05;95772.25;;;-0.46;100.00
4617;BME280;2321;42.704;23.384;2023-12-20T01:10:32;95774.03;;;-0.47;100.00
4617;BME280;2321;42.704;23.384;2023-12-20T01:12:59;95761.41;;;-0.53;100.00
4617;BME280;2321;42.704;23.384;2023-12-20T01:15:26;95765.19;;;-0.57;100.00
4617;BME280;2321;42.704;23.384;2023-12-20T01:17:53;95769.56;;;-0.58;100.00
4617;BME280;2321;42.704;23.384;2023-12-20T01:20:22;95761.63;;;-0.56;100.00
4617;BME280;2321;42.704;23.384;2023-12-20T01:22:50;95750.19;;;-0.55;100.00
4617;BME280;2321;42.704;23.384;2023-12-20T01:25:18;95755.44;;;-0.55;100.00
4617;BME280;2321;42.704;23.384;2023-12-20T01:27:45;95745.81;;;-0.55;100.00
4617;BME280;2321;42.704;23.384;2023-12-20T01:30:13;95751.50;;;-0.61;100.00
4617;BME280;2321;42.704;23.384;2023-12-20T01:32:40;95742.44;;;-0.68;100.00
4617;BME280;2321;42.704;23.384;2023-12-20T01:35:07;95734.09;;;-0.73;100.00
4617;BME280;2321;42.704;23.384;2023-12-20T01:37:34;95738.50;;;-0.74;100.00
4617;BME280;2321;42.704;23.384;2023-12-20T01:40:04;95739.22;;;-0.72;100.00
4617;BME280;2321;42.704;23.384;2023-12-20T01:42:31;95730.66;;;-0.74;100.00
4617;BME280;2321;42.704;23.384;2023-12-20T01:44:58;95730.13;;;-0.79;100.00
4617;BME280;2321;42.704;23.384;2023-12-20T01:47:25;95720.88;;;-0.83;100.00
4617;BME280;2321;42.704;23.384;2023-12-20T01:49:52;95722.25;;;-0.91;100.00
4617;BME280;2321;42.704;23.384;2023-12-20T01:52:22;95721.56;;;-0.93;100.00
4617;BME280;2321;42.704;23.384;2023-12-20T01:54:51;95676.91;;;-1.14;100.00
4617;BME280;2321;42.704;23.384;2023-12-20T01:57:22;95715.47;;;-0.93;100.00
4617;BME280;2321;42.704;23.384;2023-12-20T01:59:49;95716.31;;;-0.93;100.00
4617;BME280;2321;42.704;23.384;2023-12-20T02:02:17;95706.94;;;-0.95;100.00
4617;BME280;2321;42.704;23.384;2023-12-20T02:04:44;95717.47;;;-0.97;100.00
4617;BME280;2321;42.704;23.384;2023-12-20T02:07:11;95707.16;;;-0.99;100.00
4617;BME280;2321;42.704;23.384;2023-12-20T02:09:39;95700.25;;;-1.00;100.00
4617;BME280;2321;42.704;23.384;2023-12-20T02:12:07;95695.00;;;-1.00;100.00
4617;BME280;2321;42.704;23.384;2023-12-20T02:14:36;95675.94;;;-1.13;100.00
4617;BME280;2321;42.704;23.384;2023-12-20T02:17:04;95693.47;;;-1.02;100.00
4617;BME280;2321;42.704;23.384;2023-12-20T02:19:31;95697.00;;;-1.03;100.00
4617;BME280;2321;42.704;23.384;2023-12-20T02:22:07;95686.69;;;-1.05;100.00
4617;BME280;2321;42.704;23.384;2023-12-20T02:24:34;95687.41;;;-1.03;100.00
4617;BME280;2321;42.704;23.384;2023-12-20T02:27:02;95668.09;;;-1.13;100.00
4617;BME280;2321;42.704;23.384;2023-12-20T02:29:29;95677.88;;;-1.04;100.00
4617;BME280;2321;42.704;23.384;2023-12-20T02:31:57;95651.44;;;-1.24;100.00
4617;BME280;2321;42.704;23.384;2023-12-20T02:34:24;95676.22;;;-1.05;100.00
4617;BME280;2321;42.704;23.384;2023-12-20T02:36:51;95685.13;;;-1.07;100.00
4617;BME280;2321;42.704;23.384;2023-12-20T02:39:21;95675.63;;;-1.08;100.00
4617;BME280;2321;42.704;23.384;2023-12-20T02:41:49;95670.38;;;-1.08;100.00
4617;BME280;2321;42.704;23.384;2023-12-20T02:44:16;95659.22;;;-1.11;100.00
4617;BME280;2321;42.704;23.384;2023-12-20T02:46:43;95664.31;;;-1.09;100.00
4617;BME280;2321;42.704;23.384;2023-12-20T02:49:10;95663.38;;;-1.08;100.00
4617;BME280;2321;42.704;23.384;2023-12-20T02:51:37;95654.47;;;-1.05;100.00
4617;BME280;2321;42.704;23.384;2023-12-20T02:54:04;95652.41;;;-1.13;100.00
4617;BME280;2321;42.704;23.384;2023-12-20T02:56:33;95660.47;;;-1.16;100.00
4617;BME280;2321;42.704;23.384;2023-12-20T02:59:01;95658.25;;;-1.10;100.00
4617;BME280;2321;42.704;23.384;2023-12-20T03:01:31;95659.72;;;-1.05;100.00
4617;BME280;2321;42.704;23.384;2023-12-20T03:03:58;95658.53;;;-1.01;100.00
4617;BME280;2321;42.704;23.384;2023-12-20T03:06:25;95656.66;;;-0.99;100.00
4617;BME280;2321;42.704;23.384;2023-12-20T03:08:52;95652.84;;;-0.95;100.00
4617;BME280;2321;42.704;23.384;2023-12-20T03:11:19;95652.84;;;-0.95;100.00
4617;BME280;2321;42.704;23.384;2023-12-20T03:13:48;95649.28;;;-0.94;100.00
4617;BME280;2321;42.704;23.384;2023-12-20T03:16:15;95657.13;;;-0.94;100.00
4617;BME280;2321;42.704;23.384;2023-12-20T03:18:42;95654.50;;;-0.94;100.00
4617;BME280;2321;42.704;23.384;2023-12-20T03:21:09;95648.34;;;-0.93;100.00
4617;BME280;2321;42.704;23.384;2023-12-20T03:23:36;95643.84;;;-0.91;100.00
4617;BME280;2321;42.704;23.384;2023-12-20T03:26:05;95644.31;;;-0.85;100.00
4617;BME280;2321;42.704;23.384;2023-12-20T03:28:33;95642.22;;;-0.80;100.00
4617;BME280;2321;42.704;23.384;2023-12-20T03:31:02;95647.22;;;-0.77;100.00
4617;BME280;2321;42.704;23.384;2023-12-20T03:33:29;95640.06;;;-0.75;100.00
4617;BME280;2321;42.704;23.384;2023-12-20T03:35:56;95634.72;;;-0.73;100.00
4617;BME280;2321;42.704;23.384;2023-12-20T03:38:23;95603.69;;;-0.90;100.00
4617;BME280;2321;42.704;23.384;2023-12-20T03:40:50;95633.53;;;-0.69;100.00
4617;BME280;2321;42.704;23.384;2023-12-20T03:43:17;95633.31;;;-0.66;100.00
4617;BME280;2321;42.704;23.384;2023-12-20T03:45:44;95628.22;;;-0.68;100.00
4617;BME280;2321;42.704;23.384;2023-12-20T03:48:13;95626.41;;;-0.67;100.00
4617;BME280;2321;42.704;23.384;2023-12-20T03:50:40;95619.03;;;-0.73;100.00
4617;BME280;2321;42.704;23.384;2023-12-20T03:53:07;95627.38;;;-0.68;100.00
4617;BME280;2321;42.704;23.384;2023-12-20T03:55:34;95623.91;;;-0.69;100.00
4617;BME280;2321;42.704;23.384;2023-12-20T03:58:01;95625.38;;;-0.64;100.00
4617;BME280;2321;42.704;23.384;2023-12-20T04:00:28;95627.25;;;-0.67;100.00
4617;BME280;2321;42.704;23.384;2023-12-20T04:02:55;95622.25;;;-0.70;100.00
4617;BME280;2321;42.704;23.384;2023-12-20T04:05:24;95616.31;;;-0.72;100.00
4617;BME280;2321;42.704;23.384;2023-12-20T04:07:51;95605.84;;;-0.72;100.00
4617;BME280;2321;42.704;23.384;2023-12-20T04:10:18;95611.78;;;-0.70;100.00
4617;BME280;2321;42.704;23.384;2023-12-20T04:12:45;95610.38;;;-0.74;100.00
4617;BME280;2321;42.704;23.384;2023-12-20T04:15:12;95605.00;;;-0.72;100.00
4617;BME280;2321;42.704;23.384;2023-12-20T04:17:39;95612.97;;;-0.74;100.00
4617;BME280;2321;42.704;23.384;2023-12-20T04:20:07;95605.72;;;-0.70;100.00
4617;BME280;2321;42.704;23.384;2023-12-20T04:22:36;95610.38;;;-0.74;100.00
4617;BME280;2321;42.704;23.384;2023-12-20T04:25:03;95607.53;;;-0.71;100.00
4617;BME280;2321;42.704;23.384;2023-12-20T04:27:31;95610.84;;;-0.69;100.00
4617;BME280;2321;42.704;23.384;2023-12-20T04:29:58;95595.16;;;-0.69;100.00
4617;BME280;2321;42.704;23.384;2023-12-20T04:32:25;95598.72;;;-0.70;100.00
4617;BME280;2321;42.704;23.384;2023-12-20T04:34:52;95595.38;;;-0.72;100.00
4617;BME280;2321;42.704;23.384;2023-12-20T04:37:19;95589.31;;;-0.72;100.00
4617;BME280;2321;42.704;23.384;2023-12-20T04:39:47;95583.72;;;-0.79;100.00
4617;BME280;2321;42.704;23.384;2023-12-20T04:42:14;95584.69;;;-0.80;100.00
4617;BME280;2321;42.704;23.384;2023-12-20T04:44:41;95587.41;;;-0.82;100.00
4617;BME280;2321;42.704;23.384;2023-12-20T04:47:09;95586.56;;;-0.82;100.00
4617;BME280;2321;42.704;23.384;2023-12-20T04:49:36;95575.28;;;-0.83;100.00
4617;BME280;2321;42.704;23.384;2023-12-20T04:52:04;95588.00;;;-0.90;100.00
4617;BME280;2321;42.704;23.384;2023-12-20T04:54:31;95545.03;;;-1.10;100.00
4617;BME280;2321;42.704;23.384;2023-12-20T04:56:59;95579.09;;;-0.87;100.00
4617;BME280;2321;42.704;23.384;2023-12-20T04:59:27;95576.34;;;-0.85;100.00
4617;BME280;2321;42.704;23.384;2023-12-20T05:01:54;95578.72;;;-0.82;100.00
4617;BME280;2321;42.704;23.384;2023-12-20T05:04:21;95582.66;;;-0.77;100.00
4617;BME280;2321;42.704;23.384;2023-12-20T05:06:48;95569.69;;;-0.78;100.00
4617;BME280;2321;42.704;23.384;2023-12-20T05:09:16;95571.84;;;-0.83;100.00
4617;BME280;2321;42.704;23.384;2023-12-20T05:11:43;95563.16;;;-0.84;100.00
4617;BME280;2321;42.704;23.384;2023-12-20T05:14:12;95562.94;;;-0.81;100.00
4617;BME280;2321;42.704;23.384;2023-12-20T05:16:39;95566.47;;;-0.82;100.00
4617;BME280;2321;42.704;23.384;2023-12-20T05:19:06;95559.25;;;-0.78;100.00
4617;BME280;2321;42.704;23.384;2023-12-20T05:21:33;95561.63;;;-0.75;100.00
4617;BME280;2321;42.704;23.384;2023-12-20T05:24:00;95557.09;;;-0.73;100.00
4617;BME280;2321;42.704;23.384;2023-12-20T05:26:27;95556.88;;;-0.70;100.00
4617;BME280;2321;42.704;23.384;2023-12-20T05:28:55;95550.09;;;-0.72;100.00
4617;BME280;2321;42.704;23.384;2023-12-20T05:31:23;95551.50;;;-0.80;100.00
4617;BME280;2321;42.704;23.384;2023-12-20T05:33:50;95547.09;;;-0.79;100.00
4617;BME280;2321;42.704;23.384;2023-12-20T05:36:18;95546.28;;;-0.80;100.00
4617;BME280;2321;42.704;23.384;2023-12-20T05:38:45;95544.72;;;-0.82;100.00
4617;BME280;2321;42.704;23.384;2023-12-20T05:41:12;95546.41;;;-0.81;100.00
4617;BME280;2321;42.704;23.384;2023-12-20T05:43:40;95541.53;;;-0.86;100.00
4617;BME280;2321;42.704;23.384;2023-12-20T05:46:07;95506.81;;;-1.11;100.00
4617;BME280;2321;42.704;23.384;2023-12-20T05:48:38;95534.97;;;-0.92;100.00
4617;BME280;2321;42.704;23.384;2023-12-20T05:51:05;95536.88;;;-0.94;100.00
4617;BME280;2321;42.704;23.384;2023-12-20T05:53:32;95529.75;;;-0.92;100.00
4617;BME280;2321;42.704;23.384;2023-12-20T05:55:59;95536.31;;;-0.86;100.00
4617;BME280;2321;42.704;23.384;2023-12-20T05:58:26;95533.69;;;-0.86;100.00
4617;BME280;2321;42.704;23.384;2023-12-20T06:00:53;95532.38;;;-0.80;100.00
4617;BME280;2321;42.704;23.384;2023-12-20T06:03:20;95527.03;;;-0.79;100.00
4617;BME280;2321;42.704;23.384;2023-12-20T06:05:49;95519.31;;;-0.80;100.00
4617;BME280;2321;42.704;23.384;2023-12-20T06:08:16;95485.44;;;-1.05;100.00
4617;BME280;2321;42.704;23.384;2023-12-20T06:10:43;95526.44;;;-0.82;100.00
4617;BME280;2321;42.704;23.384;2023-12-20T06:13:10;95524.50;;;-0.92;100.00
4617;BME280;2321;42.704;23.384;2023-12-20T06:15:38;95526.44;;;-0.94;100.00
4617;BME280;2321;42.704;23.384;2023-12-20T06:18:06;95526.56;;;-0.95;100.00
4617;BME280;2321;42.704;23.384;2023-12-20T06:20:33;95524.50;;;-0.92;100.00
4617;BME280;2321;42.704;23.384;2023-12-20T06:23:01;95531.19;;;-0.88;100.00
4617;BME280;2321;42.704;23.384;2023-12-20T06:25:28;95525.25;;;-0.90;100.00
4617;BME280;2321;42.704;23.384;2023-12-20T06:27:55;95530.84;;;-0.83;100.00
4617;BME280;2321;42.704;23.384;2023-12-20T06:30:22;95529.19;;;-0.84;100.00
4617;BME280;2321;42.704;23.384;2023-12-20T06:32:51;95523.56;;;-0.79;100.00
4617;BME280;2321;42.704;23.384;2023-12-20T06:35:18;95520.03;;;-0.78;100.00
4617;BME280;2321;42.704;23.384;2023-12-20T06:37:45;95530.94;;;-0.73;100.00
4617;BME280;2321;42.704;23.384;2023-12-20T06:40:14;95517.88;;;-0.73;100.00
4617;BME280;2321;42.704;23.384;2023-12-20T06:42:41;95513.00;;;-0.66;100.00
4617;BME280;2321;42.704;23.384;2023-12-20T06:45:09;95518.47;;;-0.58;100.00
4617;BME280;2321;42.704;23.384;2023-12-20T06:47:37;95509.53;;;-0.55;100.00
4617;BME280;2321;42.704;23.384;2023-12-20T06:50:05;95510.88;;;-0.49;100.00
4617;BME280;2321;42.704;23.384;2023-12-20T06:52:33;95504.31;;;-0.43;100.00
4617;BME280;2321;42.704;23.384;2023-12-20T06:55:01;95505.72;;;-0.39;100.00
4617;BME280;2321;42.704;23.384;2023-12-20T06:57:30;95498.72;;;-0.39;100.00
4617;BME280;2321;42.704;23.384;2023-12-20T06:59:57;95501.00;;;-0.34;100.00
4617;BME280;2321;42.704;23.384;2023-12-20T07:02:24;95511.22;;;-0.31;100.00
4617;BME280;2321;42.704;23.384;2023-12-20T07:04:51;95505.13;;;-0.31;100.00
4617;BME280;2321;42.704;23.384;2023-12-20T07:07:18;95503.81;;;-0.26;100.00
4617;BME280;2321;42.704;23.384;2023-12-20T07:09:45;95490.59;;;-0.24;100.00
4617;BME280;2321;42.704;23.384;2023-12-20T07:12:13;95486.66;;;-0.18;100.00
4617;BME280;2321;42.704;23.384;2023-12-20T07:14:41;95495.00;;;-0.13;100.00
4617;BME280;2321;42.704;23.384;2023-12-20T07:17:08;95484.13;;;-0.08;100.00
4617;BME280;2321;42.704;23.384;2023-12-20T07:19:37;95486.50;;;-0.05;100.00
4617;BME280;2321;42.704;23.384;2023-12-20T07:22:05;95474.97;;;-0.03;100.00
4617;BME280;2321;42.704;23.384;2023-12-20T07:24:32;95487.00;;;0.00;100.00
4617;BME280;2321;42.704;23.384;2023-12-20T07:26:59;95484.47;;;-0.02;100.00
4617;BME280;2321;42.704;23.384;2023-12-20T07:29:27;95485.31;;;-0.01;100.00
4617;BME280;2321;42.704;23.384;2023-12-20T07:31:55;95477.72;;;-0.04;100.00
4617;BME280;2321;42.704;23.384;2023-12-20T07:34:22;95477.50;;;-0.13;100.00
4617;BME280;2321;42.704;23.384;2023-12-20T07:36:49;95476.53;;;-0.12;100.00
4617;BME280;2321;42.704;23.384;2023-12-20T07:39:16;95480.81;;;-0.10;100.00
4617;BME280;2321;42.704;23.384;2023-12-20T07:41:44;95443.75;;;-0.27;100.00
4617;BME280;2321;42.704;23.384;2023-12-20T07:44:11;95481.88;;;-0.02;100.00
4617;BME280;2321;42.704;23.384;2023-12-20T07:46:38;95471.59;;;0.07;100.00
4617;BME280;2321;42.704;23.384;2023-12-20T07:49:05;95477.31;;;0.12;100.00
4617;BME280;2321;42.704;23.384;2023-12-20T07:51:34;95481.22;;;0.18;100.00
4617;BME280;2321;42.704;23.384;2023-12-20T07:54:01;95471.19;;;0.23;100.00
4617;BME280;2321;42.704;23.384;2023-12-20T07:56:29;95458.53;;;0.28;100.00
4617;BME280;2321;42.704;23.384;2023-12-20T07:58:56;95462.56;;;0.32;100.00
4617;BME280;2321;42.704;23.384;2023-12-20T08:01:23;95462.06;;;0.39;100.00
4617;BME280;2321;42.704;23.384;2023-12-20T08:03:50;95467.75;;;0.44;100.00
4617;BME280;2321;42.704;23.384;2023-12-20T08:06:18;95470.13;;;0.47;100.00
4617;BME280;2321;42.704;23.384;2023-12-20T08:08:45;95464.50;;;0.52;100.00
4617;BME280;2321;42.704;23.384;2023-12-20T08:11:12;95465.31;;;0.52;100.00
4617;BME280;2321;42.704;23.384;2023-12-20T08:13:40;95461.50;;;0.57;100.00
4617;BME280;2321;42.704;23.384;2023-12-20T08:16:07;95454.31;;;0.59;100.00
4617;BME280;2321;42.704;23.384;2023-12-20T08:18:34;95457.28;;;0.65;100.00
4617;BME280;2321;42.704;23.384;2023-12-20T08:21:01;95449.41;;;0.65;100.00
4617;BME280;2321;42.704;23.384;2023-12-20T08:23:30;95436.56;;;0.62;100.00
4617;BME280;2321;42.704;23.384;2023-12-20T08:25:57;95447.09;;;0.72;100.00
4617;BME280;2321;42.704;23.384;2023-12-20T08:28:24;95452.22;;;0.74;100.00
4617;BME280;2321;42.704;23.384;2023-12-20T08:30:51;95448.81;;;0.83;100.00
4617;BME280;2321;42.704;23.384;2023-12-20T08:33:20;95449.53;;;0.85;100.00
4617;BME280;2321;42.704;23.384;2023-12-20T08:35:47;95439.31;;;0.82;100.00
4617;BME280;2321;42.704;23.384;2023-12-20T08:38:15;95429.50;;;0.84;100.00
4617;BME280;2321;42.704;23.384;2023-12-20T08:40:43;95425.22;;;0.83;100.00
4617;BME280;2321;42.704;23.384;2023-12-20T08:43:11;95427.84;;;0.83;100.00
4617;BME280;2321;42.704;23.384;2023-12-20T08:45:38;95433.22;;;0.82;100.00
4617;BME280;2321;42.704;23.384;2023-12-20T08:48:06;95416.81;;;0.80;100.00
4617;BME280;2321;42.704;23.384;2023-12-20T08:50:33;95422.38;;;0.65;100.00
4617;BME280;2321;42.704;23.384;2023-12-20T08:53:01;95379.72;;;0.31;100.00
4617;BME280;2321;42.704;23.384;2023-12-20T08:55:30;95420.84;;;0.41;100.00
4617;BME280;2321;42.704;23.384;2023-12-20T08:58:00;95409.78;;;0.37;100.00
4617;BME280;2321;42.704;23.384;2023-12-20T09:00:33;95414.53;;;0.43;100.00
4617;BME280;2321;42.704;23.384;2023-12-20T09:03:01;95395.22;;;0.45;100.00
4617;BME280;2321;42.704;23.384;2023-12-20T09:05:30;95398.88;;;0.53;100.00
4617;BME280;2321;42.704;23.384;2023-12-20T09:07:57;95384.94;;;0.53;100.00
4617;BME280;2321;42.704;23.384;2023-12-20T09:10:24;95377.28;;;0.61;100.00
4617;BME280;2321;42.704;23.384;2023-12-20T09:12:52;95370.53;;;0.69;100.00
4617;BME280;2321;42.704;23.384;2023-12-20T09:15:24;95351.81;;;0.73;100.00
4617;BME280;2321;42.704;23.384;2023-12-20T09:17:51;95343.78;;;0.75;100.00
4617;BME280;2321;42.704;23.384;2023-12-20T09:20:18;95352.09;;;0.80;100.00
4617;BME280;2321;42.704;23.384;2023-12-20T09:22:45;95348.38;;;0.83;100.00
4617;BME280;2321;42.704;23.384;2023-12-20T09:25:12;95302.53;;;0.67;100.00
4617;BME280;2321;42.704;23.384;2023-12-20T09:27:41;95331.72;;;0.94;100.00
4617;BME280;2321;42.704;23.384;2023-12-20T09:30:09;95317.66;;;0.95;100.00
4617;BME280;2321;42.704;23.384;2023-12-20T09:32:37;95324.28;;;0.99;100.00
4617;BME280;2321;42.704;23.384;2023-12-20T09:35:05;95306.63;;;1.01;100.00
4617;BME280;2321;42.704;23.384;2023-12-20T09:37:34;95299.75;;;1.10;100.00
4617;BME280;2321;42.704;23.384;2023-12-20T09:40:01;95296.72;;;1.15;100.00
4617;BME280;2321;42.704;23.384;2023-12-20T09:42:36;95297.28;;;1.18;100.00
4617;BME280;2321;42.704;23.384;2023-12-20T09:45:08;95287.19;;;1.24;100.00
4617;BME280;2321;42.704;23.384;2023-12-20T09:47:37;95284.56;;;1.24;100.00
4617;BME280;2321;42.704;23.384;2023-12-20T09:50:05;95256.09;;;0.99;100.00
4617;BME280;2321;42.704;23.384;2023-12-20T09:52:34;95283.88;;;1.22;100.00
4617;BME280;2321;42.704;23.384;2023-12-20T09:55:01;95272.97;;;1.26;100.00
4617;BME280;2321;42.704;23.384;2023-12-20T09:57:31;95271.47;;;1.34;100.00
4617;BME280;2321;42.704;23.384;2023-12-20T09:59:58;95273.41;;;1.32;100.00
4617;BME280;2321;42.704;23.384;2023-12-20T10:02:25;95264.00;;;1.19;100.00
4617;BME280;2321;42.704;23.384;2023-12-20T10:04:54;95274.91;;;1.34;100.00
4617;BME280;2321;42.704;23.384;2023-12-20T10:07:21;95267.34;;;1.41;100.00
4617;BME280;2321;42.704;23.384;2023-12-20T10:09:49;95249.38;;;1.46;100.00
4617;BME280;2321;42.704;23.384;2023-12-20T10:12:19;95256.25;;;1.57;100.00
4617;BME280;2321;42.704;23.384;2023-12-20T10:14:48;95248.38;;;1.67;100.00
4617;BME280;2321;42.704;23.384;2023-12-20T10:17:16;95235.97;;;1.59;100.00
4617;BME280;2321;42.704;23.384;2023-12-20T10:19:44;95228.78;;;1.51;100.00
4617;BME280;2321;42.704;23.384;2023-12-20T10:22:12;95237.78;;;1.49;100.00
4617;BME280;2321;42.704;23.384;2023-12-20T10:24:40;95235.41;;;1.56;100.00
4617;BME280;2321;42.704;23.384;2023-12-20T10:27:12;95218.69;;;1.57;100.00
4617;BME280;2321;42.704;23.384;2023-12-20T10:29:39;95219.78;;;1.64;100.00
4617;BME280;2321;42.704;23.384;2023-12-20T10:32:24;95213.97;;;1.70;100.00
4617;BME280;2321;42.704;23.384;2023-12-20T10:34:51;95190.06;;;1.73;100.00
4617;BME280;2321;42.704;23.384;2023-12-20T10:37:20;95186.06;;;1.79;100.00
4617;BME280;2321;42.704;23.384;2023-12-20T10:39:50;95200.78;;;1.90;100.00
4617;BME280;2321;42.704;23.384;2023-12-20T10:42:22;95207.97;;;1.98;100.00
4617;BME280;2321;42.704;23.384;2023-12-20T10:44:49;95207.69;;;2.01;100.00
4617;BME280;2321;42.704;23.384;2023-12-20T10:47:19;95191.94;;;2.01;100.00
4617;BME280;2321;42.704;23.384;2023-12-20T10:49:47;95186.22;;;2.06;100.00
4617;BME280;2321;42.704;23.384;2023-12-20T10:52:15;95177.66;;;2.14;100.00
4617;BME280;2321;42.704;23.384;2023-12-20T10:54:45;95180.13;;;2.15;100.00
4617;BME280;2321;42.704;23.384;2023-12-20T10:57:15;95176.16;;;2.11;100.00
4617;BME280;2321;42.704;23.384;2023-12-20T10:59:48;95173.16;;;2.24;100.00
4617;BME280;2321;42.704;23.384;2023-12-20T11:02:16;95171.63;;;2.32;100.00
4617;BME280;2321;42.704;23.384;2023-12-20T11:04:47;95163.81;;;2.40;100.00
4617;BME280;2321;42.704;23.384;2023-12-20T11:07:24;95158.97;;;2.45;100.00
4617;BME280;2321;42.704;23.384;2023-12-20T11:09:59;95147.72;;;2.53;100.00
4617;BME280;2321;42.704;23.384;2023-12-20T11:12:39;95148.53;;;2.54;100.00
4617;BME280;2321;42.704;23.384;2023-12-20T11:15:32;95144.31;;;2.61;100.00
4617;BME280;2321;42.704;23.384;2023-12-20T11:18:15;95137.50;;;2.68;100.00
4617;BME280;2321;42.704;23.384;2023-12-20T11:20:47;95138.88;;;2.72;100.00
4617;BME280;2321;42.704;23.384;2023-12-20T11:26:00;95125.50;;;2.84;100.00
4617;BME280;2321;42.704;23.384;2023-12-20T11:28:31;95120.91;;;2.86;100.00
4617;BME280;2321;42.704;23.384;2023-12-20T11:31:09;95108.94;;;2.92;100.00
4617;BME280;2321;42.704;23.384;2023-12-20T11:33:45;95097.16;;;2.96;100.00
4617;BME280;2321;42.704;23.384;2023-12-20T11:36:18;95098.34;;;3.02;100.00
4617;BME280;2321;42.704;23.384;2023-12-20T11:39:01;95086.19;;;3.01;100.00
4617;BME280;2321;42.704;23.384;2023-12-20T11:41:40;95082.88;;;2.99;100.00
4617;BME280;2321;42.704;23.384;2023-12-20T11:44:12;95078.97;;;3.03;100.00
4617;BME280;2321;42.704;23.384;2023-12-20T11:47:02;95070.31;;;3.11;100.00
4617;BME280;2321;42.704;23.384;2023-12-20T11:49:34;95075.63;;;3.19;100.00
4617;BME280;2321;42.704;23.384;2023-12-20T11:52:12;95063.28;;;3.20;100.00
4617;BME280;2321;42.704;23.384;2023-12-20T11:54:44;95054.53;;;3.11;100.00
4617;BME280;2321;42.704;23.384;2023-12-20T11:57:19;95055.88;;;3.15;100.00
4617;BME280;2321;42.704;23.384;2023-12-20T11:59:53;95048.75;;;3.07;100.00
4617;BME280;2321;42.704;23.384;2023-12-20T12:02:31;95044.41;;;2.98;100.00
4617;BME280;2321;42.704;23.384;2023-12-20T12:05:04;95036.00;;;2.94;100.00
4617;BME280;2321;42.704;23.384;2023-12-20T12:07:40;95027.91;;;2.87;100.00
4617;BME280;2321;42.704;23.384;2023-12-20T12:10:12;95020.97;;;2.86;100.00
4617;BME280;2321;42.704;23.384;2023-12-20T12:12:42;95017.81;;;2.82;100.00
4617;BME280;2321;42.704;23.384;2023-12-20T12:15:11;95018.66;;;2.83;100.00
4617;BME280;2321;42.704;23.384;2023-12-20T12:17:40;95004.97;;;2.79;100.00
4617;BME280;2321;42.704;23.384;2023-12-20T12:20:20;95011.06;;;2.80;100.00
4617;BME280;2321;42.704;23.384;2023-12-20T12:22:58;95008.22;;;2.73;100.00
4617;BME280;2321;42.704;23.384;2023-12-20T12:25:30;95014.13;;;2.67;100.00
4617;BME280;2321;42.704;23.384;2023-12-20T12:28:03;94995.19;;;2.63;100.00
4617;BME280;2321;42.704;23.384;2023-12-20T12:30:32;94997.81;;;2.63;100.00
4617;BME280;2321;42.704;23.384;2023-12-20T12:33:00;94999.31;;;2.66;100.00
4617;BME280;2321;42.704;23.384;2023-12-20T12:35:29;95002.91;;;2.65;100.00
4617;BME280;2321;42.704;23.384;2023-12-20T12:38:10;95004.88;;;2.63;100.00
4617;BME280;2321;42.704;23.384;2023-12-20T12:40:40;95008.34;;;2.63;100.00
4617;BME280;2321;42.704;23.384;2023-12-20T12:43:13;95000.97;;;2.48;100.00
4617;BME280;2321;42.704;23.384;2023-12-20T12:45:48;94998.66;;;2.45;100.00
4617;BME280;2321;42.704;23.384;2023-12-20T12:48:17;94989.94;;;2.45;100.00
4617;BME280;2321;42.704;23.384;2023-12-20T12:50:49;94985.88;;;2.50;100.00
4617;BME280;2321;42.704;23.384;2023-12-20T12:53:23;94984.75;;;2.53;100.00
4617;BME280;2321;42.704;23.384;2023-12-20T12:55:54;94962.63;;;2.37;100.00
4617;BME280;2321;42.704;23.384;2023-12-20T12:58:32;94981.34;;;2.61;100.00
4617;BME280;2321;42.704;23.384;2023-12-20T13:01:01;94980.75;;;2.67;100.00
4617;BME280;2321;42.704;23.384;2023-12-20T13:03:36;94972.28;;;2.55;100.00
4617;BME280;2321;42.704;23.384;2023-12-20T13:06:07;94974.69;;;2.48;100.00
4617;BME280;2321;42.704;23.384;2023-12-20T13:08:41;94969.84;;;2.35;100.00
4617;BME280;2321;42.704;23.384;2023-12-20T13:11:15;94969.00;;;2.35;100.00
4617;BME280;2321;42.704;23.384;2023-12-20T13:13:48;94978.84;;;2.33;100.00
4617;BME280;2321;42.704;23.384;2023-12-20T13:16:17;94976.00;;;2.26;100.00